Terminal Aerodrome Forecast
Issued by NWS

Home | Current Version | Previous Version | Text Only | Print | Product List | Glossary On
Versions: 1 2 3 4 5 6 7 8 9 10 11 12 13 14
000
FTUS41 KBOX 270540
TAFFMH
TAF
KFMH 270540Z 2706/2806 23005KT P6SM SKC
     FM271500 20012KT P6SM BKN100
     FM272100 20013G22KT P6SM BKN080
     FM280100 21009KT P6SM BKN250
     FM280400 22005KT P6SM BKN250=

USA.gov is the U.S. government's official web portal to all federal, state and local government web resources and services.